Time;durP1;ratioP1;P1;durP2;ratioP2;P2;SDS_P1;SDS_P2;PMS_P1;PMS_P2;Temp;Humidity;BMP_temperature;BMP_pressure;BME280_temperature;BME280_humidity;BME280_pressure;Samples;Min_cycle;Max_cycle;Signal;HPM_P1;HPM_P2
2023/08/21 00:01:56;;;;;;;31.58;6.40;;;26.10;99.90;;;;;;5061687;28;20413;-54
2023/08/21 00:04:22;;;;;;;32.08;6.18;;;26.00;99.90;;;;;;5062393;28;20054;-54
2023/08/21 00:06:49;;;;;;;33.03;6.45;;;26.00;99.90;;;;;;5062396;28;20432;-54
2023/08/21 00:09:15;;;;;;;31.98;5.32;;;25.90;99.90;;;;;;5048778;28;20086;-58
2023/08/21 00:11:42;;;;;;;27.95;5.70;;;25.80;99.90;;;;;;5049869;28;20047;-56
2023/08/21 00:14:08;;;;;;;32.05;6.00;;;25.70;99.90;;;;;;5049683;28;20051;-55
2023/08/21 00:16:34;;;;;;;27.25;5.00;;;25.60;99.90;;;;;;5048631;28;20064;-58
2023/08/21 00:19:01;;;;;;;29.00;4.90;;;25.50;99.90;;;;;;5048989;28;20040;-59
2023/08/21 00:21:27;;;;;;;24.67;4.45;;;25.50;99.90;;;;;;5048612;28;20050;-54
2023/08/21 00:23:54;;;;;;;27.33;4.75;;;25.50;99.90;;;;;;5048526;28;20058;-57
2023/08/21 00:26:20;;;;;;;26.25;4.47;;;25.40;99.90;;;;;;5048846;28;20099;-55
2023/08/21 00:28:46;;;;;;;22.45;4.63;;;25.40;99.90;;;;;;5049521;28;20056;-56
2023/08/21 00:31:13;;;;;;;22.52;4.28;;;25.40;99.90;;;;;;5049141;28;20144;-57
2023/08/21 00:33:39;;;;;;;20.17;4.07;;;25.50;99.90;;;;;;5049090;28;20416;-56
2023/08/21 00:36:06;;;;;;;28.95;4.70;;;25.50;99.90;;;;;;5049106;28;20067;-58
2023/08/21 00:38:32;;;;;;;24.90;4.50;;;25.60;99.90;;;;;;5047349;28;20078;-57
2023/08/21 00:40:59;;;;;;;18.52;4.05;;;25.60;99.90;;;;;;5049679;28;20103;-56
2023/08/21 00:43:25;;;;;;;23.15;4.68;;;25.60;99.90;;;;;;5048534;28;20047;-60
2023/08/21 00:45:51;;;;;;;24.58;4.40;;;25.60;99.90;;;;;;5049100;28;20053;-59
2023/08/21 00:48:18;;;;;;;20.10;4.28;;;25.60;99.90;;;;;;5048722;28;20147;-57
2023/08/21 00:50:45;;;;;;;21.00;4.20;;;25.70;99.90;;;;;;5049166;28;20045;-57
2023/08/21 00:53:12;;;;;;;29.52;5.20;;;25.70;99.90;;;;;;5048458;28;20053;-58
2023/08/21 00:55:40;;;;;;;22.20;4.68;;;25.70;99.90;;;;;;5049825;28;20063;-55
2023/08/21 00:58:08;;;;;;;22.88;5.28;;;25.70;99.90;;;;;;5049089;28;20100;-56
2023/08/21 01:00:35;;;;;;;25.85;4.60;;;25.60;99.90;;;;;;5048974;28;20097;-54
2023/08/21 01:03:02;;;;;;;22.13;5.05;;;25.60;99.90;;;;;;5048719;28;20051;-56
2023/08/21 01:05:29;;;;;;;27.50;5.10;;;25.60;99.90;;;;;;5047873;28;20044;-57
2023/08/21 01:08:03;;;;;;;21.48;4.60;;;25.60;99.90;;;;;;5049120;28;20067;-56
2023/08/21 01:10:35;;;;;;;28.15;5.22;;;25.60;99.90;;;;;;5047882;28;20057;-52
2023/08/21 01:13:34;;;;;;;27.63;5.97;;;25.60;99.90;;;;;;5048020;28;20175;-57
2023/08/21 01:16:02;;;;;;;28.10;4.97;;;25.50;99.90;;;;;;5010498;28;20102;-50
2023/08/21 01:18:29;;;;;;;26.50;4.63;;;25.40;99.90;;;;;;5047217;28;20058;-59
2023/08/21 01:20:58;;;;;;;32.45;5.95;;;25.40;99.90;;;;;;5045555;28;20051;-57
2023/08/21 01:23:38;;;;;;;27.73;5.55;;;25.30;99.90;;;;;;5048090;28;20049;-55
2023/08/21 01:26:05;;;;;;;32.85;5.40;;;25.20;99.90;;;;;;5046510;28;20105;-57
2023/08/21 01:28:34;;;;;;;29.33;5.70;;;25.10;99.90;;;;;;5048149;28;20050;-58
2023/08/21 01:31:21;;;;;;;34.03;5.70;;;25.00;99.90;;;;;;5047596;28;20052;-56
2023/08/21 01:33:57;;;;;;;32.95;6.53;;;24.90;99.90;;;;;;5047314;28;20526;-56
2023/08/21 01:36:25;;;;;;;30.10;5.80;;;24.90;99.90;;;;;;5045834;28;20061;-56
2023/08/21 01:38:51;;;;;;;27.85;5.28;;;24.90;99.90;;;;;;5047397;28;20168;-55
2023/08/21 01:41:17;;;;;;;32.65;6.03;;;24.90;99.90;;;;;;5046924;28;20053;-56
2023/08/21 01:43:44;;;;;;;31.27;5.35;;;24.80;99.90;;;;;;5047580;28;20053;-53
2023/08/21 01:46:11;;;;;;;31.67;6.00;;;24.70;99.90;;;;;;5047532;28;20052;-58
2023/08/21 01:48:37;;;;;;;34.50;6.38;;;24.70;99.90;;;;;;5048466;28;20056;-57
2023/08/21 01:51:03;;;;;;;24.05;4.85;;;24.60;99.90;;;;;;5047231;28;20044;-57
2023/08/21 01:53:30;;;;;;;23.90;4.50;;;24.50;99.90;;;;;;5046042;28;20053;-58
2023/08/21 01:55:56;;;;;;;19.00;3.72;;;24.50;99.90;;;;;;5044406;28;20057;-54
2023/08/21 01:58:22;;;;;;;26.50;4.57;;;24.50;99.90;;;;;;5045460;28;20396;-60
2023/08/21 02:00:49;;;;;;;23.02;3.63;;;24.40;99.90;;;;;;5045498;28;20045;-56
2023/08/21 02:03:15;;;;;;;24.13;4.50;;;24.50;99.90;;;;;;5047542;28;20068;-56
2023/08/21 02:05:42;;;;;;;27.05;5.25;;;24.40;99.90;;;;;;5045547;28;20050;-56
2023/08/21 02:08:14;;;;;;;20.60;3.67;;;24.40;99.90;;;;;;5043334;28;20115;-55
2023/08/21 02:10:53;;;;;;;22.67;4.45;;;24.40;99.90;;;;;;5043710;28;20594;-58
2023/08/21 02:13:20;;;;;;;29.58;4.22;;;24.40;99.90;;;;;;5046784;28;20536;-57
2023/08/21 02:15:46;;;;;;;18.02;3.40;;;24.40;99.90;;;;;;5043272;28;20097;-58
2023/08/21 02:18:13;;;;;;;21.80;3.55;;;24.40;99.90;;;;;;5045545;28;20065;-57
2023/08/21 02:20:39;;;;;;;16.25;3.78;;;24.40;99.90;;;;;;5044375;28;20538;-58
2023/08/21 02:23:05;;;;;;;17.50;3.95;;;24.30;99.90;;;;;;5046732;28;20054;-54
2023/08/21 02:25:32;;;;;;;19.55;3.33;;;24.40;99.90;;;;;;5047962;28;20084;-56
2023/08/21 02:27:59;;;;;;;22.20;3.58;;;24.40;99.90;;;;;;5047130;28;20050;-60
2023/08/21 02:30:25;;;;;;;15.13;3.75;;;24.40;99.90;;;;;;5047769;28;20049;-59
2023/08/21 02:32:53;;;;;;;22.73;3.30;;;24.40;99.90;;;;;;5046862;28;20053;-54
2023/08/21 02:35:20;;;;;;;12.80;2.88;;;24.50;99.90;;;;;;5046503;28;20583;-58
2023/08/21 02:37:47;;;;;;;14.48;3.08;;;24.50;99.90;;;;;;5046077;28;20129;-56
2023/08/21 02:40:13;;;;;;;14.05;2.85;;;24.50;99.90;;;;;;5046409;28;20054;-59
2023/08/21 02:42:40;;;;;;;16.85;3.35;;;24.50;99.90;;;;;;5045957;28;20053;-58
2023/08/21 02:45:09;;;;;;;21.05;4.38;;;24.50;99.90;;;;;;5045826;28;20087;-58
2023/08/21 02:47:38;;;;;;;19.65;3.83;;;24.50;99.90;;;;;;5046211;28;20142;-58
2023/08/21 02:50:05;;;;;;;21.67;4.22;;;24.50;99.90;;;;;;5046646;28;20040;-58
2023/08/21 02:52:33;;;;;;;18.98;3.45;;;24.50;99.90;;;;;;5046090;28;20053;-60
2023/08/21 02:55:00;;;;;;;25.10;4.03;;;24.40;99.90;;;;;;5046733;28;20420;-55
2023/08/21 02:57:27;;;;;;;26.35;4.22;;;24.40;99.90;;;;;;5044417;28;20139;-58
2023/08/21 02:59:54;;;;;;;26.88;3.67;;;24.40;99.90;;;;;;5041676;28;20102;-61
2023/08/21 03:02:21;;;;;;;28.50;5.15;;;24.40;99.90;;;;;;5044395;28;20044;-57
2023/08/21 03:04:48;;;;;;;22.25;4.05;;;24.40;99.90;;;;;;5046383;28;20145;-56
2023/08/21 03:07:15;;;;;;;22.35;4.20;;;24.40;99.90;;;;;;5044465;28;21076;-57
2023/08/21 03:09:42;;;;;;;27.90;4.72;;;24.40;99.90;;;;;;5045404;28;20419;-58
2023/08/21 03:12:09;;;;;;;18.88;4.43;;;24.40;99.90;;;;;;5044076;28;20052;-59
2023/08/21 03:14:35;;;;;;;24.92;4.45;;;24.40;99.90;;;;;;5044460;28;20449;-60
2023/08/21 03:17:01;;;;;;;28.88;4.88;;;24.30;99.90;;;;;;5044136;28;20069;-59
2023/08/21 03:19:28;;;;;;;32.47;4.65;;;24.30;99.90;;;;;;5044460;28;20573;-58
2023/08/21 03:21:54;;;;;;;27.02;3.92;;;24.30;99.90;;;;;;5046554;28;20074;-58
2023/08/21 03:24:21;;;;;;;26.05;4.82;;;24.30;99.90;;;;;;5047575;28;20092;-55
2023/08/21 03:26:48;;;;;;;23.45;4.55;;;24.20;99.90;;;;;;5046576;28;20181;-61
2023/08/21 03:29:14;;;;;;;26.05;4.65;;;24.20;99.90;;;;;;5044854;28;20101;-54
2023/08/21 03:31:40;;;;;;;19.52;3.88;;;24.30;99.90;;;;;;5045657;28;20060;-60
2023/08/21 03:34:07;;;;;;;20.50;4.05;;;24.20;99.90;;;;;;5045672;28;20069;-60
2023/08/21 03:36:33;;;;;;;22.30;4.22;;;24.30;99.90;;;;;;5044782;28;20110;-61
2023/08/21 03:39:01;;;;;;;19.33;3.97;;;24.30;99.90;;;;;;5044653;28;20157;-60
2023/08/21 03:41:27;;;;;;;23.85;3.97;;;24.30;99.90;;;;;;5028607;28;20073;-57
2023/08/21 03:43:54;;;;;;;21.15;3.60;;;24.30;99.90;;;;;;5048506;28;20082;-59
2023/08/21 03:46:20;;;;;;;22.52;4.45;;;24.30;99.90;;;;;;5049663;28;20102;-57
2023/08/21 03:48:47;;;;;;;20.83;4.28;;;24.40;99.90;;;;;;5049655;28;20064;-59
2023/08/21 03:51:13;;;;;;;16.60;3.25;;;24.40;99.90;;;;;;5049123;28;20121;-57
2023/08/21 03:53:40;;;;;;;21.27;3.92;;;24.50;99.90;;;;;;5046255;28;20416;-58
2023/08/21 03:56:06;;;;;;;23.35;4.43;;;24.50;99.90;;;;;;5047892;28;20081;-56
2023/08/21 03:58:34;;;;;;;23.35;4.00;;;24.50;99.90;;;;;;5047792;28;20463;-58
2023/08/21 04:01:00;;;;;;;16.52;3.78;;;24.60;99.90;;;;;;5046726;28;20458;-57
2023/08/21 04:03:27;;;;;;;13.48;3.28;;;24.60;99.90;;;;;;5048342;28;20066;-57
2023/08/21 04:05:56;;;;;;;23.30;4.55;;;24.70;99.90;;;;;;5048556;28;20144;-57
2023/08/21 04:08:23;;;;;;;18.73;4.28;;;24.70;99.90;;;;;;5048535;28;20128;-57
2023/08/21 04:10:52;;;;;;;19.60;4.22;;;24.60;99.90;;;;;;5049494;28;20080;-57
2023/08/21 04:13:19;;;;;;;20.80;3.95;;;24.70;99.90;;;;;;5046301;28;20072;-55
2023/08/21 04:15:46;;;;;;;17.00;3.60;;;24.70;99.90;;;;;;5045169;28;20110;-58
2023/08/21 04:18:12;;;;;;;19.70;3.33;;;24.70;99.90;;;;;;5045810;28;20084;-58
2023/08/21 04:20:39;;;;;;;18.42;3.25;;;24.70;99.90;;;;;;5047068;28;20069;-55
2023/08/21 04:23:05;;;;;;;19.65;3.42;;;24.70;99.90;;;;;;5047065;28;20060;-58
2023/08/21 04:25:31;;;;;;;17.05;3.40;;;24.70;99.90;;;;;;5048563;28;20118;-57
2023/08/21 04:27:58;;;;;;;15.48;3.08;;;24.70;99.90;;;;;;5047409;28;20064;-58
2023/08/21 04:30:24;;;;;;;19.77;3.40;;;24.70;99.90;;;;;;5046856;28;20055;-56
2023/08/21 04:32:50;;;;;;;18.42;3.67;;;24.70;99.90;;;;;;5048256;28;20082;-59
2023/08/21 04:35:17;;;;;;;17.30;3.75;;;24.70;99.90;;;;;;5048095;28;20701;-56
2023/08/21 04:37:46;;;;;;;20.75;3.88;;;24.80;99.90;;;;;;5048815;28;20075;-56
2023/08/21 04:40:13;;;;;;;17.13;3.50;;;24.90;99.90;;;;;;5049287;28;20064;-55
2023/08/21 04:42:39;;;;;;;14.35;3.40;;;24.80;99.90;;;;;;5049028;28;20536;-57
2023/08/21 04:45:06;;;;;;;22.30;3.30;;;24.80;99.90;;;;;;5048952;28;20181;-58
2023/08/21 04:47:32;;;;;;;16.88;3.22;;;24.80;99.90;;;;;;5046741;28;20070;-58
2023/08/21 04:49:59;;;;;;;15.63;3.58;;;24.80;99.90;;;;;;5047677;28;20177;-57
2023/08/21 04:52:25;;;;;;;17.25;3.40;;;24.70;99.90;;;;;;5049371;28;20409;-57
2023/08/21 04:54:52;;;;;;;17.05;3.95;;;24.70;99.90;;;;;;5048579;28;21384;-57
2023/08/21 04:57:20;;;;;;;15.15;3.20;;;24.70;99.90;;;;;;5048351;28;20073;-56
2023/08/21 04:59:47;;;;;;;21.15;3.83;;;24.70;99.90;;;;;;5048603;28;20097;-58
2023/08/21 05:02:14;;;;;;;16.48;3.35;;;24.60;99.90;;;;;;5046778;28;20148;-54
2023/08/21 05:04:41;;;;;;;13.50;3.70;;;24.50;99.90;;;;;;5045146;28;20150;-56
2023/08/21 05:07:07;;;;;;;16.23;4.00;;;24.50;99.90;;;;;;5046549;28;20446;-59
2023/08/21 05:09:34;;;;;;;15.75;3.63;;;24.60;99.90;;;;;;5046830;28;20097;-60
2023/08/21 05:12:00;;;;;;;15.35;3.33;;;24.50;99.90;;;;;;5046040;28;20063;-55
2023/08/21 05:14:27;;;;;;;15.98;3.05;;;24.50;99.90;;;;;;5046774;28;20073;-61
2023/08/21 05:16:53;;;;;;;18.08;3.70;;;24.50;99.90;;;;;;5045893;28;20121;-56
2023/08/21 05:19:20;;;;;;;14.27;3.08;;;24.50;99.90;;;;;;5048161;28;20063;-56
2023/08/21 05:21:46;;;;;;;15.05;3.55;;;24.50;99.90;;;;;;5047734;28;20116;-59
2023/08/21 05:24:12;;;;;;;17.60;3.80;;;24.60;99.90;;;;;;5047398;28;20102;-60
2023/08/21 05:26:39;;;;;;;20.08;8.95;;;24.70;99.90;;;;;;5047833;28;20067;-58
2023/08/21 05:29:05;;;;;;;19.65;5.35;;;24.70;99.90;;;;;;5046372;28;20060;-55
2023/08/21 05:31:32;;;;;;;18.20;6.00;;;24.60;99.90;;;;;;5045638;28;20072;-57
2023/08/21 05:33:58;;;;;;;14.45;3.55;;;24.60;99.90;;;;;;5047773;28;20545;-57
2023/08/21 05:36:25;;;;;;;14.73;3.15;;;24.70;99.90;;;;;;5046423;28;20123;-56
2023/08/21 05:38:51;;;;;;;18.10;5.43;;;24.70;99.90;;;;;;5047331;28;20431;-57
2023/08/21 05:41:18;;;;;;;17.40;6.55;;;24.60;99.90;;;;;;5047138;28;20127;-57
2023/08/21 05:43:45;;;;;;;15.68;4.15;;;24.70;99.90;;;;;;5046687;28;20062;-59
2023/08/21 05:46:12;;;;;;;12.18;3.17;;;24.70;99.90;;;;;;5047263;28;20067;-56
2023/08/21 05:48:38;;;;;;;12.88;3.13;;;24.80;99.90;;;;;;5047271;28;20513;-55
2023/08/21 05:51:05;;;;;;;12.10;2.92;;;24.80;99.90;;;;;;5046636;28;20066;-59
2023/08/21 05:53:31;;;;;;;9.45;2.60;;;24.80;99.90;;;;;;5046176;28;20109;-56
2023/08/21 05:55:58;;;;;;;14.10;2.72;;;24.80;99.90;;;;;;5047401;28;20087;-57
2023/08/21 05:58:29;;;;;;;15.15;2.92;;;24.80;99.90;;;;;;5045388;28;20094;-56
2023/08/21 06:00:55;;;;;;;13.93;3.03;;;24.80;99.90;;;;;;5046699;28;20069;-57
2023/08/21 06:03:22;;;;;;;10.70;2.65;;;24.70;99.90;;;;;;5046619;28;20063;-58
2023/08/21 06:05:48;;;;;;;13.30;2.55;;;24.70;99.90;;;;;;5046400;28;20074;-61
2023/08/21 06:08:15;;;;;;;9.77;1.80;;;24.60;99.90;;;;;;5045844;28;20207;-60
2023/08/21 06:10:41;;;;;;;8.68;2.28;;;24.60;99.90;;;;;;5045123;28;20058;-61
2023/08/21 06:13:08;;;;;;;8.50;2.30;;;24.70;99.90;;;;;;5043900;28;20410;-59
2023/08/21 06:15:34;;;;;;;13.27;2.95;;;24.70;99.90;;;;;;5046097;28;20424;-60
2023/08/21 06:18:01;;;;;;;9.27;2.15;;;24.80;99.90;;;;;;5043321;28;20149;-57
2023/08/21 06:20:27;;;;;;;10.80;2.40;;;24.80;99.90;;;;;;5042538;28;20068;-57
2023/08/21 06:22:54;;;;;;;7.68;2.38;;;24.80;99.90;;;;;;5039128;28;20059;-59
2023/08/21 06:25:20;;;;;;;11.02;2.80;;;24.80;99.90;;;;;;5046844;28;20110;-59
2023/08/21 06:27:47;;;;;;;14.50;2.75;;;24.80;99.90;;;;;;5046459;28;20072;-58
2023/08/21 06:30:13;;;;;;;8.85;2.25;;;24.80;99.90;;;;;;5046571;28;20097;-59
2023/08/21 06:32:40;;;;;;;12.05;2.92;;;24.80;99.90;;;;;;5047170;28;20064;-60
2023/08/21 06:35:06;;;;;;;13.20;3.50;;;24.80;99.90;;;;;;5047073;28;20060;-58
2023/08/21 06:37:33;;;;;;;8.18;2.20;;;24.80;99.90;;;;;;5047121;28;20090;-59
2023/08/21 06:39:59;;;;;;;10.02;2.53;;;24.80;99.90;;;;;;5046869;28;20596;-60
2023/08/21 06:42:25;;;;;;;11.07;2.83;;;24.80;99.90;;;;;;5047736;28;20447;-60
2023/08/21 06:44:52;;;;;;;7.82;2.00;;;24.80;99.90;;;;;;5047036;28;20059;-61
2023/08/21 06:47:18;;;;;;;10.10;2.50;;;24.80;99.90;;;;;;5047501;28;20069;-62
2023/08/21 06:49:45;;;;;;;11.75;2.70;;;24.70;99.90;;;;;;5046808;28;20064;-58
2023/08/21 06:52:11;;;;;;;14.05;2.75;;;24.70;99.90;;;;;;5045435;28;20061;-60
2023/08/21 06:54:37;;;;;;;8.27;2.42;;;24.70;99.90;;;;;;5047188;28;20150;-57
2023/08/21 06:57:04;;;;;;;19.45;3.72;;;24.70;99.90;;;;;;5046449;28;20073;-57
2023/08/21 06:59:33;;;;;;;15.13;3.40;;;24.70;99.90;;;;;;5046804;28;20066;-60
2023/08/21 07:02:00;;;;;;;18.65;6.05;;;24.70;99.90;;;;;;5044034;28;20064;-59
2023/08/21 07:04:27;;;;;;;18.25;7.13;;;24.70;99.90;;;;;;5046539;28;20062;-60
2023/08/21 07:06:53;;;;;;;25.90;7.32;;;24.70;99.90;;;;;;5043800;28;20092;-64
2023/08/21 07:09:20;;;;;;;25.63;8.30;;;24.70;99.90;;;;;;5045450;28;20066;-58
2023/08/21 07:11:46;;;;;;;27.98;6.93;;;24.70;99.90;;;;;;5045605;28;20063;-59
2023/08/21 07:14:13;;;;;;;23.45;5.13;;;24.80;99.90;;;;;;5045948;28;20079;-59
2023/08/21 07:16:40;;;;;;;27.95;4.85;;;24.80;99.90;;;;;;5046242;28;20104;-58
2023/08/21 07:19:06;;;;;;;19.73;3.67;;;24.80;99.90;;;;;;5048963;28;20100;-60
2023/08/21 07:21:35;;;;;;;21.60;6.20;;;24.70;99.90;;;;;;5049947;28;20088;-54
2023/08/21 07:24:04;;;;;;;25.33;7.70;;;24.80;99.90;;;;;;5048217;28;20069;-60
2023/08/21 07:26:30;;;;;;;24.45;5.70;;;24.80;99.90;;;;;;5049817;28;20063;-61
2023/08/21 07:28:57;;;;;;;30.48;5.28;;;24.70;99.90;;;;;;5049397;28;21583;-57
2023/08/21 07:31:23;;;;;;;24.95;5.07;;;24.70;99.90;;;;;;5049461;28;20156;-60
2023/08/21 07:33:50;;;;;;;18.02;3.92;;;24.70;99.90;;;;;;5049447;28;20170;-55
2023/08/21 07:36:19;;;;;;;22.55;3.70;;;24.70;99.90;;;;;;5051002;28;20068;-60
2023/08/21 07:38:45;;;;;;;15.68;3.78;;;24.80;99.90;;;;;;5048545;28;20063;-58
2023/08/21 07:41:13;;;;;;;23.52;4.10;;;24.80;99.90;;;;;;5049536;28;20421;-60
2023/08/21 07:43:43;;;;;;;24.30;5.68;;;24.80;99.90;;;;;;5048742;28;20135;-59
2023/08/21 07:46:20;;;;;;;22.42;7.07;;;24.70;99.90;;;;;;5048233;28;21055;-59
2023/08/21 07:48:47;;;;;;;28.23;8.52;;;24.70;99.90;;;;;;5048755;28;20074;-57
2023/08/21 07:51:14;;;;;;;23.92;9.32;;;24.70;99.90;;;;;;5047760;28;20070;-58
2023/08/21 07:53:40;;;;;;;26.52;10.20;;;24.80;99.90;;;;;;5048714;28;20763;-59
2023/08/21 07:56:06;;;;;;;27.35;9.88;;;24.80;99.90;;;;;;5048702;28;20079;-59
2023/08/21 07:58:33;;;;;;;25.42;9.48;;;24.80;99.90;;;;;;5047835;28;20132;-58
2023/08/21 08:01:01;;;;;;;28.92;10.23;;;24.80;99.90;;;;;;5049052;28;20145;-59
2023/08/21 08:03:27;;;;;;;27.55;9.07;;;24.80;99.90;;;;;;5049180;28;20071;-60
2023/08/21 08:05:54;;;;;;;22.30;8.15;;;24.80;99.90;;;;;;5048250;28;20061;-59
2023/08/21 08:08:20;;;;;;;25.90;8.32;;;24.90;99.90;;;;;;5047400;28;20130;-61
2023/08/21 08:10:47;;;;;;;23.55;7.80;;;24.90;99.90;;;;;;5047506;28;20105;-57
2023/08/21 08:13:13;;;;;;;20.05;6.05;;;24.90;99.90;;;;;;5048563;28;20417;-57
2023/08/21 08:15:40;;;;;;;19.02;5.57;;;24.90;99.90;;;;;;5049633;28;20059;-59
2023/08/21 08:18:12;;;;;;;23.70;5.00;;;24.90;99.90;;;;;;5048272;28;20164;-56
2023/08/21 08:20:38;;;;;;;19.58;5.40;;;24.90;99.90;;;;;;5047677;28;20064;-56
2023/08/21 08:23:05;;;;;;;19.02;4.38;;;24.90;99.90;;;;;;5048575;28;20153;-58
2023/08/21 08:25:31;;;;;;;17.50;4.15;;;24.80;99.90;;;;;;5049126;28;20067;-53
2023/08/21 08:27:57;;;;;;;23.90;5.60;;;24.80;99.90;;;;;;5047352;28;20077;-58
2023/08/21 08:30:24;;;;;;;20.77;4.50;;;24.80;99.90;;;;;;5048798;28;20065;-60
2023/08/21 08:32:50;;;;;;;22.55;5.00;;;24.80;99.90;;;;;;5048015;28;20116;-56
2023/08/21 08:35:16;;;;;;;17.92;4.85;;;24.70;99.90;;;;;;5046905;28;20062;-56
2023/08/21 08:37:43;;;;;;;19.75;4.90;;;24.70;99.90;;;;;;5046858;28;20098;-60
2023/08/21 08:40:11;;;;;;;21.48;5.22;;;24.70;99.90;;;;;;5047190;28;20102;-57
2023/08/21 08:42:38;;;;;;;20.33;4.80;;;24.70;99.90;;;;;;5048141;28;20063;-59
2023/08/21 08:45:05;;;;;;;26.00;5.35;;;24.70;99.90;;;;;;5048158;28;20070;-58
2023/08/21 08:47:35;;;;;;;23.92;4.78;;;24.70;99.90;;;;;;5048432;28;20063;-59
2023/08/21 08:50:07;;;;;;;23.85;4.97;;;24.70;99.90;;;;;;5047630;28;20076;-59
2023/08/21 08:52:36;;;;;;;23.80;5.38;;;24.70;99.90;;;;;;5046241;28;20558;-57
2023/08/21 08:55:03;;;;;;;26.75;5.25;;;24.60;99.90;;;;;;5048031;28;20069;-58
2023/08/21 08:57:31;;;;;;;19.02;5.63;;;24.70;99.90;;;;;;5046768;28;20152;-58
2023/08/21 08:59:58;;;;;;;19.30;5.13;;;24.60;99.90;;;;;;5047495;28;20099;-57
2023/08/21 09:02:26;;;;;;;13.38;5.43;;;24.60;99.90;;;;;;5047494;28;20154;-62
2023/08/21 09:04:53;;;;;;;14.57;5.32;;;24.50;99.90;;;;;;5047727;28;20087;-57
2023/08/21 09:07:20;;;;;;;14.70;5.55;;;24.40;99.90;;;;;;5047561;28;20113;-55
2023/08/21 09:09:49;;;;;;;13.38;5.32;;;24.40;99.90;;;;;;5045888;28;20499;-57
2023/08/21 09:12:19;;;;;;;17.67;6.40;;;24.40;99.90;;;;;;5046807;28;20074;-59
2023/08/21 09:14:46;;;;;;;21.00;6.50;;;24.40;99.90;;;;;;5047364;28;20150;-58
2023/08/21 09:17:13;;;;;;;16.85;6.68;;;24.30;99.90;;;;;;5046907;28;20553;-57
2023/08/21 09:19:40;;;;;;;12.43;5.93;;;24.20;99.90;;;;;;5046662;28;20413;-59
2023/08/21 09:22:10;;;;;;;12.00;5.25;;;24.30;99.90;;;;;;5046862;28;20148;-56
2023/08/21 09:24:38;;;;;;;9.57;4.38;;;24.20;99.90;;;;;;5046730;28;20070;-56
2023/08/21 09:27:12;;;;;;;9.90;4.57;;;24.20;99.90;;;;;;5046423;28;20526;-55
2023/08/21 09:29:42;;;;;;;12.70;4.80;;;24.10;99.90;;;;;;5046787;28;20096;-62
2023/08/21 09:32:09;;;;;;;9.02;4.20;;;24.10;99.90;;;;;;5046718;28;20070;-55
2023/08/21 09:34:37;;;;;;;9.93;3.45;;;24.00;99.90;;;;;;5046985;28;20471;-56
2023/08/21 09:37:07;;;;;;;7.57;2.90;;;24.00;99.90;;;;;;5046977;28;20078;-59
2023/08/21 09:39:37;;;;;;;7.75;3.22;;;24.00;99.90;;;;;;5046701;28;20099;-59
2023/08/21 09:42:07;;;;;;;5.10;2.65;;;24.00;99.90;;;;;;5047194;28;20542;-59
2023/08/21 09:44:43;;;;;;;7.53;2.50;;;24.00;99.90;;;;;;5046641;28;20077;-58
2023/08/21 09:47:11;;;;;;;9.00;2.20;;;23.90;99.90;;;;;;5046657;28;20204;-58
2023/08/21 09:49:39;;;;;;;5.93;2.42;;;23.80;99.90;;;;;;5046096;28;20591;-56
2023/08/21 09:52:13;;;;;;;5.32;1.83;;;23.80;99.90;;;;;;5045965;28;20550;-54
2023/08/21 09:54:41;;;;;;;4.47;1.80;;;23.80;99.90;;;;;;5046714;28;20080;-58
2023/08/21 09:57:08;;;;;;;8.05;2.55;;;23.70;99.90;;;;;;5046616;28;20112;-57
2023/08/21 09:59:35;;;;;;;4.45;1.70;;;23.70;99.90;;;;;;5046286;28;20110;-56
2023/08/21 10:02:02;;;;;;;4.68;1.67;;;23.70;99.90;;;;;;5046980;28;20131;-59
2023/08/21 10:04:32;;;;;;;4.18;1.35;;;23.60;99.90;;;;;;5045261;28;20086;-58
2023/08/21 10:06:59;;;;;;;3.45;1.27;;;23.50;99.90;;;;;;5045660;28;20113;-56
2023/08/21 10:09:29;;;;;;;8.07;1.80;;;23.60;99.90;;;;;;5045848;28;20564;-60
2023/08/21 10:11:57;;;;;;;3.60;1.40;;;23.50;99.90;;;;;;5046849;28;20081;-57
2023/08/21 10:14:24;;;;;;;3.28;1.23;;;23.40;99.90;;;;;;5046425;28;20459;-58
2023/08/21 10:16:54;;;;;;;3.95;1.27;;;23.40;99.90;;;;;;5047087;28;20085;-56
2023/08/21 10:19:21;;;;;;;5.35;1.17;;;23.50;99.90;;;;;;5046602;28;20073;-59
2023/08/21 10:21:49;;;;;;;3.67;1.30;;;23.50;99.90;;;;;;5045209;28;21639;-59
2023/08/21 10:24:37;;;;;;;4.10;1.30;;;23.40;99.90;;;;;;5046128;28;20098;-58
2023/08/21 10:27:06;;;;;;;3.10;1.15;;;23.40;99.90;;;;;;5045610;28;20419;-58
2023/08/21 10:29:33;;;;;;;3.33;1.25;;;23.40;99.90;;;;;;5046237;28;20555;-55
2023/08/21 10:32:04;;;;;;;5.10;1.42;;;23.40;99.90;;;;;;5046482;28;20081;-57
2023/08/21 10:34:37;;;;;;;4.35;1.30;;;23.40;99.90;;;;;;5045226;28;20656;-55
2023/08/21 10:37:12;;;;;;;2.72;1.30;;;23.30;99.90;;;;;;5045850;28;20088;-55
2023/08/21 10:39:39;;;;;;;4.82;1.25;;;23.30;99.90;;;;;;5044711;28;20078;-53
2023/08/21 10:42:15;;;;;;;5.32;1.52;;;23.30;99.90;;;;;;5044547;28;20084;-59
2023/08/21 10:45:00;;;;;;;4.53;1.50;;;23.30;99.90;;;;;;5045391;28;20086;-58
2023/08/21 10:47:35;;;;;;;2.65;1.50;;;23.30;99.90;;;;;;5045352;28;20187;-58
2023/08/21 10:50:04;;;;;;;3.83;1.90;;;23.30;99.90;;;;;;5046454;28;20131;-56
2023/08/21 10:52:36;;;;;;;6.72;1.75;;;23.20;99.90;;;;;;5045669;28;20214;-57
2023/08/21 10:55:06;;;;;;;5.03;2.15;;;23.20;99.90;;;;;;5045729;28;20091;-59
2023/08/21 10:57:34;;;;;;;6.07;1.90;;;23.20;99.90;;;;;;5045751;28;21665;-57
2023/08/21 11:00:09;;;;;;;3.97;1.95;;;23.20;99.90;;;;;;5044768;28;20080;-58
2023/08/21 11:02:36;;;;;;;4.45;1.88;;;23.20;99.90;;;;;;5044959;28;20083;-54
2023/08/21 11:05:03;;;;;;;4.32;1.90;;;23.20;99.90;;;;;;5045936;28;20404;-58
2023/08/21 11:07:30;;;;;;;3.00;1.70;;;23.10;99.90;;;;;;5045564;28;20123;-59
2023/08/21 11:09:57;;;;;;;4.32;1.80;;;23.10;99.90;;;;;;5045180;28;20206;-56
2023/08/21 11:12:24;;;;;;;4.68;1.77;;;23.10;99.90;;;;;;5045334;28;20071;-58
2023/08/21 11:14:51;;;;;;;2.55;1.70;;;23.10;99.90;;;;;;5044280;28;20236;-54
2023/08/21 11:17:23;;;;;;;2.97;1.80;;;23.10;99.90;;;;;;5045422;28;20084;-53
2023/08/21 11:19:50;;;;;;;2.28;1.58;;;23.00;99.90;;;;;;5045756;28;20104;-58
2023/08/21 11:22:16;;;;;;;4.60;1.80;;;23.00;99.90;;;;;;5045460;28;20085;-59
2023/08/21 11:24:48;;;;;;;2.60;1.80;;;23.00;99.90;;;;;;5045564;28;20088;-57
2023/08/21 11:27:16;;;;;;;2.53;1.63;;;23.00;99.90;;;;;;5045133;28;20469;-56
2023/08/21 11:29:44;;;;;;;3.63;1.90;;;23.00;99.90;;;;;;5045521;28;20084;-58
2023/08/21 11:32:30;;;;;;;3.97;2.00;;;23.00;99.90;;;;;;5045070;28;20085;-57
2023/08/21 11:34:57;;;;;;;7.55;1.85;;;23.00;99.90;;;;;;5045024;28;20167;-57
2023/08/21 11:37:26;;;;;;;4.35;2.10;;;22.90;99.90;;;;;;5045188;28;20089;-56
2023/08/21 11:39:54;;;;;;;3.47;1.67;;;22.90;99.90;;;;;;5045760;28;20084;-56
2023/08/21 11:42:31;;;;;;;5.63;1.85;;;22.90;99.90;;;;;;5044580;28;20081;-58
2023/08/21 11:44:58;;;;;;;3.78;1.95;;;22.90;99.90;;;;;;5045263;28;20108;-55
2023/08/21 11:47:31;;;;;;;5.75;2.20;;;22.90;99.90;;;;;;5045910;28;20080;-58
2023/08/21 11:50:02;;;;;;;4.47;1.98;;;22.90;99.90;;;;;;5045028;28;20080;-57
2023/08/21 11:52:31;;;;;;;4.18;1.90;;;22.80;99.90;;;;;;5044715;28;20076;-54
2023/08/21 11:54:58;;;;;;;3.83;2.10;;;22.80;99.90;;;;;;5045574;28;20122;-56
2023/08/21 11:57:24;;;;;;;6.60;1.92;;;22.80;99.90;;;;;;5044893;28;20484;-56
2023/08/21 11:59:55;;;;;;;4.35;2.00;;;22.90;99.90;;;;;;5045063;28;20077;-57
2023/08/21 12:02:26;;;;;;;4.78;2.15;;;22.80;99.90;;;;;;5046046;28;20121;-60
2023/08/21 12:04:54;;;;;;;3.78;1.80;;;22.80;99.90;;;;;;5047149;28;20122;-55
2023/08/21 12:07:21;;;;;;;3.55;2.13;;;22.70;99.90;;;;;;5048209;28;20104;-58
2023/08/21 12:09:48;;;;;;;3.67;2.25;;;22.80;99.90;;;;;;5048309;28;20080;-55
2023/08/21 12:12:15;;;;;;;3.88;2.28;;;22.80;99.90;;;;;;5048657;28;20089;-58
2023/08/21 12:14:42;;;;;;;3.20;2.20;;;22.80;99.90;;;;;;5048619;28;20088;-57
2023/08/21 12:17:08;;;;;;;3.67;2.05;;;22.80;99.90;;;;;;5047919;28;20085;-55
2023/08/21 12:19:35;;;;;;;3.35;2.10;;;22.80;99.90;;;;;;5049154;28;20077;-58
2023/08/21 12:22:01;;;;;;;8.02;2.38;;;22.70;99.90;;;;;;5048897;28;20081;-57
2023/08/21 12:24:27;;;;;;;6.93;2.80;;;22.80;99.90;;;;;;5048174;28;20072;-56
2023/08/21 12:26:54;;;;;;;9.02;2.78;;;22.70;99.90;;;;;;5048198;28;20095;-57
2023/08/21 12:29:20;;;;;;;5.35;2.35;;;22.70;99.90;;;;;;5048704;28;20105;-53
2023/08/21 12:31:47;;;;;;;6.03;2.50;;;22.70;99.90;;;;;;5049486;28;20103;-57
2023/08/21 12:34:13;;;;;;;6.85;2.50;;;22.70;99.90;;;;;;5047960;28;20513;-53
2023/08/21 12:36:39;;;;;;;8.07;3.10;;;22.70;99.90;;;;;;5048309;28;20144;-58
2023/08/21 12:39:07;;;;;;;6.50;2.92;;;22.70;99.90;;;;;;5048646;28;20119;-55
2023/08/21 12:41:34;;;;;;;6.07;2.88;;;22.70;99.90;;;;;;5047598;28;20163;-55
2023/08/21 12:44:02;;;;;;;6.80;2.72;;;22.70;99.90;;;;;;5047437;28;20077;-54